createdAt,value
2022-12-01T00:01:41.209Z,16.45
2022-12-01T00:04:10.076Z,11.68
2022-12-01T00:06:39.315Z,7.50
2022-12-01T00:09:26.196Z,7.00
2022-12-01T00:11:55.536Z,26.85
2022-12-01T00:14:24.237Z,14.60
2022-12-01T00:16:53.149Z,55.78
2022-12-01T00:19:25.997Z,44.30
2022-12-01T00:21:55.423Z,23.27
2022-12-01T00:24:25.158Z,36.55
2022-12-01T00:27:12.689Z,38.33
2022-12-01T00:29:41.853Z,21.95
2022-12-01T00:32:11.408Z,51.90
2022-12-01T00:34:40.131Z,31.15
2022-12-01T00:37:09.632Z,21.33
2022-12-01T00:39:38.628Z,19.35
2022-12-01T00:42:14.342Z,13.68
2022-12-01T00:44:43.509Z,9.15
2022-12-01T00:47:12.469Z,18.08
2022-12-01T00:49:41.269Z,11.48
2022-12-01T00:52:10.431Z,9.38
2022-12-01T00:54:39.497Z,16.92
2022-12-01T00:57:09.005Z,33.72
2022-12-01T00:59:38.270Z,20.63
2022-12-01T01:02:08.975Z,75.80
2022-12-01T01:04:38.291Z,42.58
2022-12-01T01:07:07.023Z,23.17
2022-12-01T01:09:35.869Z,24.58
2022-12-01T01:12:04.641Z,31.75
2022-12-01T01:14:33.436Z,18.23
2022-12-01T01:17:02.303Z,22.00
2022-12-01T01:19:33.680Z,8.88
2022-12-01T01:22:02.490Z,24.08
2022-12-01T01:24:31.221Z,20.63
2022-12-01T01:27:00.189Z,28.10
2022-12-01T01:29:29.061Z,28.67
2022-12-01T01:31:57.861Z,24.48
2022-12-01T01:34:26.739Z,24.55
2022-12-01T01:36:55.506Z,14.98
2022-12-01T01:39:24.063Z,17.73
2022-12-01T01:41:55.328Z,16.60
2022-12-01T01:44:52.261Z,12.57
2022-12-01T01:47:27.442Z,23.27
2022-12-01T01:49:58.402Z,21.55
2022-12-01T01:52:28.920Z,22.80
2022-12-01T01:54:57.924Z,9.98
2022-12-01T01:57:34.055Z,27.83
2022-12-01T02:00:13.709Z,42.85
2022-12-01T02:02:44.450Z,29.75
2022-12-01T02:05:33.100Z,34.83
2022-12-01T02:08:03.591Z,31.13
2022-12-01T02:10:42.703Z,46.95
2022-12-01T02:13:31.875Z,51.03
2022-12-01T02:16:39.339Z,30.65
2022-12-01T02:19:41.136Z,31.48
2022-12-01T02:22:20.216Z,31.20
2022-12-01T02:25:15.801Z,19.08
2022-12-01T02:28:17.810Z,24.70
2022-12-01T02:30:53.606Z,24.23
2022-12-01T02:33:33.145Z,31.55
2022-12-01T02:36:08.397Z,26.38
2022-12-01T02:38:45.978Z,18.48
2022-12-01T02:42:39.036Z,32.40
2022-12-01T02:45:14.005Z,21.08
2022-12-01T02:47:46.025Z,36.33
2022-12-01T02:50:15.051Z,37.38
2022-12-01T02:52:44.108Z,17.73
2022-12-01T02:55:14.147Z,17.23
2022-12-01T02:57:43.024Z,26.75
2022-12-01T03:00:14.286Z,30.90
2022-12-01T03:03:13.126Z,25.30
2022-12-01T03:06:25.461Z,26.70
2022-12-01T03:09:18.753Z,16.60
2022-12-01T03:12:00.575Z,40.75
2022-12-01T03:14:53.455Z,46.70
2022-12-01T03:17:29.517Z,33.83
2022-12-01T03:20:15.663Z,39.53
2022-12-01T03:22:53.716Z,26.75
2022-12-01T03:25:25.297Z,63.83
2022-12-01T03:28:22.941Z,91.95
2022-12-01T03:30:49.995Z,53.40
2022-12-01T03:33:35.986Z,25.38
2022-12-01T03:36:11.456Z,18.80
2022-12-01T03:38:42.037Z,24.67
2022-12-01T03:41:17.329Z,26.67
2022-12-01T03:43:52.625Z,47.33
2022-12-01T03:46:58.882Z,41.88
2022-12-01T03:49:27.738Z,27.75
2022-12-01T03:52:11.534Z,24.48
2022-12-01T03:57:32.578Z,21.88
2022-12-01T04:00:02.254Z,35.53
2022-12-01T04:02:41.725Z,24.98
2022-12-01T04:05:10.598Z,56.08
2022-12-01T04:07:41.016Z,63.40
2022-12-01T04:10:10.153Z,61.40
2022-12-01T04:12:39.004Z,119.45
2022-12-01T04:15:11.033Z,68.00
2022-12-01T04:17:45.914Z,94.25
2022-12-01T04:20:15.920Z,71.95
2022-12-01T04:22:45.266Z,22.73
2022-12-01T04:25:13.757Z,50.10
2022-12-01T04:27:42.564Z,70.40
2022-12-01T04:30:14.076Z,47.67
2022-12-01T04:32:44.561Z,47.08
2022-12-01T04:35:13.827Z,83.65
2022-12-01T04:37:45.017Z,77.78
2022-12-01T04:40:14.176Z,37.20
2022-12-01T04:42:42.786Z,46.00
2022-12-01T04:45:11.771Z,81.68
2022-12-01T05:05:27.753Z,10.32
2022-12-01T05:08:01.726Z,12.88
2022-12-01T05:12:59.507Z,10.55
2022-12-01T05:15:28.205Z,10.10
2022-12-01T05:17:56.882Z,13.82
2022-12-01T05:20:46.042Z,19.95
2022-12-01T05:23:17.012Z,20.48
2022-12-01T05:25:46.033Z,32.85
2022-12-01T05:28:14.763Z,15.65
2022-12-01T05:30:44.175Z,12.52
2022-12-01T05:33:13.303Z,9.57
2022-12-01T05:42:44.435Z,19.38
2022-12-01T05:45:13.215Z,9.27
2022-12-01T05:47:41.959Z,16.83
2022-12-01T05:50:10.987Z,10.70
2022-12-01T05:52:39.805Z,14.50
2022-12-01T05:55:08.841Z,16.30
2022-12-01T05:57:37.697Z,18.10
2022-12-01T06:00:07.985Z,18.27
2022-12-01T06:02:43.332Z,16.17
2022-12-01T06:05:12.240Z,20.10
2022-12-01T06:07:41.026Z,22.15
2022-12-01T06:10:11.740Z,21.60
2022-12-01T06:12:40.801Z,25.48
2022-12-01T06:15:09.903Z,15.68
2022-12-01T06:17:40.365Z,24.33
2022-12-01T06:20:13.277Z,22.90
2022-12-01T06:22:41.905Z,13.73
2022-12-01T06:25:11.411Z,21.70
2022-12-01T06:27:40.180Z,13.48
2022-12-01T06:30:09.771Z,14.70
2022-12-01T06:32:38.400Z,12.75
2022-12-01T06:35:07.846Z,17.10
2022-12-01T06:37:36.812Z,10.05
2022-12-01T06:40:06.222Z,9.32
2022-12-01T06:42:34.801Z,12.50
2022-12-01T06:45:03.741Z,12.85
2022-12-01T06:47:32.528Z,18.17
2022-12-01T06:50:01.467Z,15.18
2022-12-01T06:52:30.292Z,14.30
2022-12-01T06:54:59.457Z,16.67
2022-12-01T06:57:28.438Z,17.65
2022-12-01T06:59:57.134Z,17.33
2022-12-01T07:02:26.677Z,59.33
2022-12-01T07:04:55.426Z,57.63
2022-12-01T07:07:24.208Z,32.17
2022-12-01T07:09:53.081Z,42.65
2022-12-01T07:12:21.596Z,17.92
2022-12-01T07:14:50.372Z,21.73
2022-12-01T07:17:19.399Z,26.67
2022-12-01T07:19:48.224Z,26.15
2022-12-01T07:22:17.417Z,19.30
2022-12-01T07:24:46.258Z,17.73
2022-12-01T07:27:17.781Z,27.27
2022-12-01T07:29:46.914Z,22.10
2022-12-01T07:32:19.447Z,27.10
2022-12-01T07:34:48.289Z,43.63
2022-12-01T07:37:19.518Z,26.17
2022-12-01T07:39:48.692Z,60.20
2022-12-01T07:42:17.642Z,23.00
2022-12-01T07:44:46.544Z,15.57
2022-12-01T07:47:15.613Z,20.35
2022-12-01T07:49:44.470Z,10.90
2022-12-01T07:52:13.123Z,9.50
2022-12-01T07:54:41.731Z,9.60
2022-12-01T07:57:10.875Z,13.50
2022-12-01T07:59:39.588Z,12.02
2022-12-01T08:02:11.315Z,10.93
2022-12-01T08:04:40.291Z,12.93
2022-12-01T08:07:08.883Z,8.05
2022-12-01T08:09:38.159Z,17.48
2022-12-01T08:12:07.234Z,14.52
2022-12-01T08:28:41.303Z,14.15
2022-12-01T08:31:23.671Z,14.45
2022-12-01T08:36:23.945Z,13.20
2022-12-01T08:38:55.046Z,12.93
2022-12-01T08:41:25.181Z,54.22
2022-12-01T08:43:58.832Z,119.40
2022-12-01T08:49:06.055Z,12.60
2022-12-01T08:51:34.890Z,27.33
2022-12-01T08:54:03.348Z,26.67
2022-12-01T08:56:36.309Z,9.93
2022-12-01T08:59:05.737Z,11.50
2022-12-01T09:01:34.386Z,15.25
2022-12-01T09:04:06.859Z,14.02
2022-12-01T09:06:45.056Z,16.65
2022-12-01T09:09:23.274Z,17.10
2022-12-01T09:11:55.449Z,16.10
2022-12-01T09:14:24.670Z,19.80
2022-12-01T09:16:53.515Z,12.57
2022-12-01T09:19:25.007Z,9.45
2022-12-01T09:21:54.521Z,6.80
2022-12-01T09:24:23.284Z,5.53
2022-12-01T09:26:55.337Z,13.75
2022-12-01T09:29:24.104Z,13.15
2022-12-01T09:31:55.739Z,16.17
2022-12-01T09:34:24.961Z,15.55
2022-12-01T09:36:58.678Z,18.48
2022-12-01T09:39:27.348Z,18.13
2022-12-01T09:55:22.295Z,35.28
2022-12-01T09:57:53.813Z,30.73
2022-12-01T10:00:24.191Z,32.30
2022-12-01T10:03:17.536Z,28.45
2022-12-01T10:06:25.880Z,22.90
2022-12-01T10:08:54.120Z,25.40
2022-12-01T10:11:37.138Z,19.83
2022-12-01T10:14:12.094Z,27.35
2022-12-01T10:16:56.772Z,31.65
2022-12-01T10:19:37.372Z,51.28
2022-12-01T10:22:19.559Z,49.38
2022-12-01T10:25:18.831Z,57.80
2022-12-01T10:28:22.185Z,87.78
2022-12-01T10:30:53.601Z,78.57
2022-12-01T10:58:56.082Z,27.67
2022-12-01T11:01:32.608Z,24.38
2022-12-01T11:04:35.618Z,29.98
2022-12-01T11:07:05.855Z,31.38
2022-12-01T11:09:34.995Z,25.85
2022-12-01T15:23:27.861Z,113.15
2022-12-01T15:25:57.648Z,76.32
2022-12-01T15:28:35.088Z,108.57
2022-12-01T15:31:12.309Z,51.78
2022-12-01T15:33:51.616Z,77.07
2022-12-01T15:36:20.653Z,44.13
2022-12-01T15:38:50.586Z,39.28
2022-12-01T15:41:31.505Z,52.40
2022-12-01T15:44:06.234Z,19.48
2022-12-01T15:46:35.667Z,46.05
2022-12-01T15:49:30.348Z,43.65
2022-12-01T15:52:12.674Z,33.45
2022-12-01T15:54:42.224Z,25.40
2022-12-01T15:57:21.150Z,25.27
2022-12-01T15:59:56.759Z,26.77
2022-12-01T16:02:33.855Z,20.27
2022-12-01T16:05:19.307Z,27.35
2022-12-01T16:08:12.603Z,24.80
2022-12-01T16:10:38.455Z,18.70
2022-12-01T16:13:36.161Z,24.70
2022-12-01T16:16:37.605Z,26.77
2022-12-01T16:19:11.364Z,7.10
2022-12-01T16:21:52.517Z,15.95
2022-12-01T16:24:32.384Z,18.17
2022-12-01T16:27:17.692Z,15.77
2022-12-01T16:29:53.741Z,18.33
2022-12-01T16:32:39.641Z,19.85
2022-12-01T16:35:25.257Z,22.20
2022-12-01T16:37:55.316Z,29.13
2022-12-01T16:40:24.873Z,16.77
2022-12-01T16:42:59.320Z,16.00
2022-12-01T16:45:31.807Z,13.52
2022-12-01T16:48:07.807Z,17.60
2022-12-01T16:50:42.152Z,14.98
2022-12-01T16:53:14.883Z,15.18
2022-12-01T16:56:03.006Z,11.63
2022-12-01T16:58:33.882Z,43.83
2022-12-01T17:01:02.625Z,16.02
2022-12-01T17:03:31.559Z,33.00
2022-12-01T17:06:03.275Z,25.88
2022-12-01T17:08:32.412Z,15.13
2022-12-01T17:11:01.432Z,18.95
2022-12-01T17:13:30.586Z,25.13
2022-12-01T17:15:59.762Z,21.35
2022-12-01T17:18:28.551Z,25.33
2022-12-01T17:21:02.394Z,21.73
2022-12-01T17:23:33.553Z,15.40
2022-12-01T17:26:02.521Z,24.35
2022-12-01T17:28:31.474Z,14.98
2022-12-01T17:31:03.825Z,8.95
2022-12-01T17:33:33.073Z,7.30
2022-12-01T17:36:05.016Z,13.15
2022-12-01T17:38:38.572Z,12.30
2022-12-01T17:41:11.661Z,10.88
2022-12-01T17:43:41.308Z,12.87
2022-12-01T17:46:12.786Z,13.20
2022-12-01T17:48:45.467Z,9.93
2022-12-01T17:51:16.174Z,25.17
2022-12-01T17:53:45.102Z,52.35
2022-12-01T17:56:16.022Z,22.50
2022-12-01T17:58:45.285Z,12.32
2022-12-01T18:01:21.359Z,14.82
2022-12-01T18:03:52.415Z,15.23
2022-12-01T18:06:22.429Z,17.08
2022-12-01T18:08:51.489Z,17.08
2022-12-01T18:11:21.583Z,16.65
2022-12-01T18:13:52.273Z,24.35
2022-12-01T18:16:24.515Z,14.32
2022-12-01T18:18:54.433Z,18.67
2022-12-01T18:21:24.795Z,15.77
2022-12-01T18:24:01.451Z,16.83
2022-12-01T18:26:33.415Z,7.53
2022-12-01T18:29:04.416Z,19.67
2022-12-01T18:31:34.717Z,11.85
2022-12-01T18:34:05.272Z,6.47
2022-12-01T18:36:38.005Z,6.15
2022-12-01T18:39:09.845Z,10.43
2022-12-01T18:41:39.396Z,13.50
2022-12-01T18:44:08.644Z,9.32
2022-12-01T18:46:37.501Z,12.15
2022-12-01T18:49:09.720Z,15.20
2022-12-01T18:51:40.501Z,10.55
2022-12-01T18:54:13.102Z,10.95
2022-12-01T18:56:42.351Z,12.02
2022-12-01T18:59:13.683Z,8.55
2022-12-01T19:01:44.033Z,9.07
2022-12-01T19:04:14.679Z,7.35
2022-12-01T19:06:44.999Z,7.35
2022-12-01T19:09:16.560Z,9.35
2022-12-01T19:11:45.480Z,8.90
2022-12-01T19:14:18.419Z,8.23
2022-12-01T19:16:48.471Z,11.20
2022-12-01T19:19:17.163Z,18.83
2022-12-01T19:21:46.481Z,15.25
2022-12-01T19:24:15.342Z,11.82
2022-12-01T19:26:43.908Z,12.68
2022-12-01T19:29:13.470Z,9.02
2022-12-01T19:31:42.538Z,10.05
2022-12-01T19:34:11.279Z,16.23
2022-12-01T19:36:39.768Z,7.82
2022-12-01T19:39:08.540Z,10.95
2022-12-01T19:41:39.320Z,12.85
2022-12-01T19:44:08.061Z,12.90
2022-12-01T19:46:37.219Z,7.95
2022-12-01T19:49:07.799Z,8.20
2022-12-01T19:51:40.079Z,7.15
2022-12-01T19:54:15.520Z,13.07
2022-12-01T19:56:44.798Z,10.63
2022-12-01T19:59:15.320Z,5.60
2022-12-01T20:01:44.541Z,12.88
2022-12-01T20:04:13.819Z,14.43
2022-12-01T20:06:43.079Z,13.48
2022-12-01T20:09:11.940Z,8.88
2022-12-01T20:11:40.860Z,12.00
2022-12-01T20:14:11.495Z,10.98
2022-12-01T20:16:40.807Z,10.05
2022-12-01T20:19:09.340Z,11.63
2022-12-01T20:21:46.119Z,10.50
2022-12-01T20:24:19.081Z,10.35
2022-12-01T20:26:51.579Z,14.15
2022-12-01T20:29:23.129Z,11.30
2022-12-01T20:31:52.869Z,6.95
2022-12-01T20:34:26.222Z,11.05
2022-12-01T20:36:55.763Z,5.32
2022-12-01T20:39:25.362Z,6.55
2022-12-01T20:41:55.061Z,10.57
2022-12-01T20:44:23.691Z,10.77
2022-12-01T20:46:53.221Z,6.15
2022-12-01T20:49:21.905Z,8.90
2022-12-01T20:51:50.679Z,5.93
2022-12-01T20:54:29.125Z,8.52
2022-12-01T20:57:00.239Z,9.35
2022-12-01T20:59:29.962Z,12.00
2022-12-01T21:01:58.657Z,5.95
2022-12-01T21:04:27.504Z,7.30
2022-12-01T21:06:58.363Z,10.48
2022-12-01T21:09:27.720Z,4.25
2022-12-01T21:12:17.966Z,9.65
2022-12-01T21:15:01.624Z,1.45
2022-12-01T21:17:33.507Z,6.38
2022-12-01T21:20:18.722Z,5.88
2022-12-01T21:22:47.521Z,7.03
2022-12-01T21:25:20.341Z,9.23
2022-12-01T21:27:49.546Z,7.40
2022-12-01T21:30:21.660Z,5.95
2022-12-01T21:32:50.860Z,7.05
2022-12-01T21:35:26.721Z,6.78
2022-12-01T21:38:02.943Z,4.07
2022-12-01T21:40:31.781Z,6.90
2022-12-01T21:43:13.209Z,5.95
2022-12-01T21:45:41.827Z,15.50
2022-12-01T21:48:25.354Z,9.05
2022-12-01T21:51:13.662Z,7.15
2022-12-01T21:53:42.501Z,14.50
2022-12-01T21:56:25.841Z,11.30
2022-12-01T21:58:58.289Z,20.23
2022-12-01T22:01:29.972Z,19.92
2022-12-01T22:04:06.503Z,17.33
2022-12-01T22:06:44.447Z,16.15
2022-12-01T22:09:21.205Z,25.95
2022-12-01T22:11:57.441Z,42.17
2022-12-01T22:14:33.509Z,26.85
2022-12-01T22:17:08.266Z,24.67
2022-12-01T22:19:40.207Z,20.38
2022-12-01T22:22:12.160Z,7.00
2022-12-01T22:24:47.218Z,15.00
2022-12-01T22:27:21.849Z,5.25
2022-12-01T22:29:53.382Z,16.00
2022-12-01T22:32:22.573Z,11.05
2022-12-01T22:34:54.899Z,13.57
2022-12-01T22:37:37.357Z,6.57
2022-12-01T22:40:32.085Z,7.57
2022-12-01T22:43:19.192Z,15.63
2022-12-01T22:46:12.349Z,17.48
2022-12-01T22:48:47.739Z,15.27
2022-12-01T22:51:52.395Z,10.32
2022-12-01T22:54:27.288Z,9.63
2022-12-01T22:57:05.242Z,11.15
2022-12-01T22:59:36.955Z,6.22
2022-12-01T23:02:22.181Z,10.00
2022-12-01T23:04:57.425Z,7.22
2022-12-01T23:07:36.280Z,3.70
2022-12-01T23:10:12.347Z,11.40
2022-12-01T23:12:41.681Z,8.15
2022-12-01T23:15:34.896Z,28.48
2022-12-01T23:18:21.735Z,59.47
2022-12-01T23:20:54.022Z,17.67
2022-12-01T23:23:28.272Z,6.38
2022-12-01T23:25:57.844Z,17.48
2022-12-01T23:28:26.930Z,7.28
2022-12-01T23:30:59.892Z,2.97
2022-12-01T23:33:33.441Z,11.63
2022-12-01T23:36:14.574Z,6.00
2022-12-01T23:38:46.289Z,4.60
2022-12-01T23:41:38.142Z,10.05
2022-12-01T23:44:24.815Z,15.48
2022-12-01T23:46:57.040Z,5.22
2022-12-01T23:49:30.782Z,6.03
2022-12-01T23:52:02.955Z,10.15
2022-12-01T23:54:35.513Z,7.03
2022-12-01T23:57:12.840Z,6.25
2022-12-01T23:59:41.508Z,14.27
